createdAt,value
2022-10-03T00:01:39.592Z,12.92
2022-10-03T00:02:39.247Z,12.73
2022-10-03T00:04:32.329Z,12.85
2022-10-03T00:05:32.353Z,12.84
2022-10-03T00:07:25.553Z,12.87
2022-10-03T00:08:25.553Z,12.85
2022-10-03T00:10:18.721Z,12.88
2022-10-03T00:11:18.749Z,12.77
2022-10-03T00:13:22.799Z,12.85
2022-10-03T00:14:22.828Z,12.79
2022-10-03T00:16:15.859Z,12.92
2022-10-03T00:17:15.841Z,12.81
2022-10-03T00:19:08.989Z,12.81
2022-10-03T00:20:09.018Z,12.87
2022-10-03T00:22:13.073Z,12.76
2022-10-03T00:23:13.102Z,12.85
2022-10-03T00:25:06.292Z,12.95
2022-10-03T00:26:06.290Z,12.91
2022-10-03T00:28:10.389Z,12.89
2022-10-03T00:29:10.377Z,12.87
2022-10-03T00:31:14.534Z,12.88
2022-10-03T00:32:14.481Z,12.74
2022-10-03T00:34:18.556Z,12.87
2022-10-03T00:35:18.581Z,12.94
2022-10-03T00:37:22.678Z,12.89
2022-10-03T00:38:22.677Z,12.91
2022-10-03T00:40:26.735Z,12.94
2022-10-03T00:41:26.761Z,12.89
2022-10-03T00:43:30.846Z,12.87
2022-10-03T00:44:30.845Z,12.89
2022-10-03T00:46:23.874Z,12.87
2022-10-03T00:47:23.870Z,12.81
2022-10-03T00:49:17.058Z,12.87
2022-10-03T00:50:17.072Z,12.88
2022-10-03T00:52:10.252Z,12.88
2022-10-03T00:53:10.248Z,12.99
2022-10-03T00:55:14.314Z,12.88
2022-10-03T00:56:14.341Z,12.89
2022-10-03T00:58:07.507Z,12.95
2022-10-03T00:59:07.534Z,12.92
2022-10-03T01:01:11.699Z,12.81
2022-10-03T01:02:11.637Z,12.89
2022-10-03T01:04:15.676Z,12.91
2022-10-03T01:05:15.701Z,12.92
2022-10-03T01:07:19.800Z,12.89
2022-10-03T01:08:19.794Z,12.94
2022-10-03T01:10:12.988Z,12.79
2022-10-03T01:11:12.989Z,12.87
2022-10-03T01:13:17.125Z,12.87
2022-10-03T01:14:17.126Z,12.89
2022-10-03T01:16:10.190Z,12.94
2022-10-03T01:17:10.129Z,12.89
2022-10-03T01:19:14.189Z,12.89
2022-10-03T01:20:14.213Z,12.92
2022-10-03T01:22:07.413Z,12.89
2022-10-03T01:23:07.414Z,12.89
2022-10-03T01:25:11.491Z,12.94
2022-10-03T01:26:11.516Z,12.92
2022-10-03T01:28:04.789Z,12.96
2022-10-03T01:29:04.707Z,12.95
2022-10-03T01:30:57.910Z,12.96
2022-10-03T01:31:57.899Z,12.92
2022-10-03T01:34:01.997Z,12.99
2022-10-03T01:35:01.989Z,12.95
2022-10-03T01:36:55.157Z,12.95
2022-10-03T01:37:55.183Z,13.07
2022-10-03T01:39:48.348Z,13.06
2022-10-03T01:40:48.379Z,13.06
2022-10-03T01:42:52.467Z,13.04
2022-10-03T01:43:52.460Z,13.10
2022-10-03T01:45:45.463Z,12.99
2022-10-03T01:46:45.530Z,12.99
2022-10-03T01:48:38.692Z,12.98
2022-10-03T01:49:38.679Z,12.95
2022-10-03T01:51:42.852Z,12.96
2022-10-03T01:52:42.776Z,12.98
2022-10-03T01:54:35.974Z,12.95
2022-10-03T01:55:35.988Z,12.95
2022-10-03T01:57:40.034Z,12.91
2022-10-03T01:58:40.057Z,12.89
2022-10-03T02:00:33.246Z,12.85
2022-10-03T02:01:33.254Z,12.87
2022-10-03T02:03:26.415Z,13.04
2022-10-03T02:04:26.445Z,12.88
2022-10-03T02:06:19.420Z,12.81
2022-10-03T02:07:19.443Z,12.94
2022-10-03T02:09:12.625Z,12.96
2022-10-03T02:10:12.635Z,12.91
2022-10-03T02:12:05.824Z,12.99
2022-10-03T02:13:05.848Z,12.98
2022-10-03T02:14:59.021Z,13.07
2022-10-03T02:15:59.078Z,12.99
2022-10-03T02:17:52.072Z,13.04
2022-10-03T02:18:52.075Z,13.03
2022-10-03T02:20:56.117Z,13.04
2022-10-03T02:21:56.148Z,13.04
2022-10-03T02:24:00.260Z,13.04
2022-10-03T02:25:00.228Z,13.07
2022-10-03T02:27:04.272Z,13.09
2022-10-03T02:28:04.353Z,13.04
2022-10-03T02:30:08.752Z,13.04
2022-10-03T02:31:08.461Z,13.06
2022-10-03T02:33:12.461Z,13.01
2022-10-03T02:34:12.463Z,13.06
2022-10-03T02:36:05.432Z,13.09
2022-10-03T02:37:05.458Z,13.10
2022-10-03T02:39:09.507Z,13.04
2022-10-03T02:40:09.533Z,13.07
2022-10-03T02:42:13.611Z,13.04
2022-10-03T02:43:13.607Z,13.10
2022-10-03T02:45:17.654Z,13.10
2022-10-03T02:46:17.676Z,13.09
2022-10-03T02:48:34.267Z,13.10
2022-10-03T02:49:21.758Z,13.13
2022-10-03T02:51:26.205Z,13.14
2022-10-03T02:52:25.830Z,13.03
2022-10-03T02:54:29.957Z,13.12
2022-10-03T02:55:29.942Z,13.12
2022-10-03T02:57:33.992Z,13.13
2022-10-03T02:58:34.022Z,13.13
2022-10-03T03:00:38.136Z,13.16
2022-10-03T03:01:38.536Z,13.12
2022-10-03T03:03:42.143Z,13.16
2022-10-03T03:04:42.170Z,13.13
2022-10-03T03:06:46.248Z,13.13
2022-10-03T03:07:46.246Z,13.14
2022-10-03T03:09:50.331Z,13.13
2022-10-03T03:10:50.327Z,13.17
2022-10-03T03:12:54.377Z,13.14
2022-10-03T03:13:54.404Z,13.10
2022-10-03T03:15:47.401Z,13.14
2022-10-03T03:16:47.450Z,13.13
2022-10-03T03:18:51.478Z,13.07
2022-10-03T03:19:51.471Z,13.03
2022-10-03T03:21:55.522Z,13.07
2022-10-03T03:22:55.547Z,13.07
2022-10-03T03:24:59.634Z,13.01
2022-10-03T03:25:59.623Z,13.10
2022-10-03T03:28:03.704Z,13.13
2022-10-03T03:29:03.703Z,13.07
2022-10-03T03:31:07.786Z,13.04
2022-10-03T03:32:07.774Z,13.04
2022-10-03T03:34:11.825Z,13.06
2022-10-03T03:35:11.851Z,13.01
2022-10-03T03:37:15.899Z,13.09
2022-10-03T03:38:15.926Z,13.04
2022-10-03T03:40:20.005Z,13.07
2022-10-03T03:41:20.000Z,13.10
2022-10-03T03:43:24.053Z,13.03
2022-10-03T03:44:24.080Z,13.13
2022-10-03T03:46:17.076Z,13.07
2022-10-03T03:47:17.073Z,13.12
2022-10-03T03:49:21.161Z,13.16
2022-10-03T03:50:21.155Z,13.12
2022-10-03T03:52:25.205Z,13.19
2022-10-03T03:53:25.234Z,13.12
2022-10-03T03:55:29.282Z,13.16
2022-10-03T03:56:29.306Z,13.16
2022-10-03T03:58:33.362Z,13.16
2022-10-03T03:59:33.384Z,13.14
2022-10-03T04:01:37.817Z,13.14
2022-10-03T04:02:37.582Z,13.01
2022-10-03T04:04:41.539Z,13.12
2022-10-03T04:05:41.535Z,13.12
2022-10-03T04:07:45.614Z,13.04
2022-10-03T04:08:45.610Z,13.04
2022-10-03T04:10:49.659Z,13.03
2022-10-03T04:11:49.688Z,13.04
2022-10-03T04:13:53.734Z,13.03
2022-10-03T04:14:53.762Z,13.12
2022-10-03T04:16:57.842Z,13.12
2022-10-03T04:17:57.839Z,13.13
2022-10-03T04:20:01.892Z,13.12
2022-10-03T04:21:01.915Z,13.07
2022-10-03T04:23:06.003Z,13.04
2022-10-03T04:24:05.998Z,13.10
2022-10-03T04:25:58.995Z,13.06
2022-10-03T04:26:58.988Z,13.04
2022-10-03T04:29:03.066Z,13.17
2022-10-03T04:30:03.067Z,13.14
2022-10-03T04:32:07.154Z,13.19
2022-10-03T04:33:07.138Z,13.21
2022-10-03T04:35:11.216Z,13.19
2022-10-03T04:36:11.213Z,13.25
2022-10-03T04:38:15.265Z,13.21
2022-10-03T04:39:15.293Z,13.22
2022-10-03T04:41:19.345Z,13.25
2022-10-03T04:42:19.372Z,13.21
2022-10-03T04:44:23.450Z,13.27
2022-10-03T04:45:23.451Z,13.24
2022-10-03T04:47:27.499Z,13.25
2022-10-03T04:48:27.526Z,13.27
2022-10-03T04:50:31.610Z,13.14
2022-10-03T04:51:31.601Z,13.29
2022-10-03T04:53:24.800Z,13.25
2022-10-03T04:54:24.799Z,13.16
2022-10-03T04:56:17.765Z,13.16
2022-10-03T04:57:17.792Z,13.24
2022-10-03T04:59:21.841Z,13.22
2022-10-03T05:00:21.887Z,13.19
2022-10-03T05:02:26.043Z,13.24
2022-10-03T05:03:25.941Z,13.24
2022-10-03T05:05:30.019Z,13.12
2022-10-03T05:06:30.016Z,13.29
2022-10-03T05:08:34.085Z,13.22
2022-10-03T05:09:34.096Z,13.25
2022-10-03T05:11:38.338Z,13.25
2022-10-03T05:12:38.170Z,13.22
2022-10-03T05:14:42.225Z,13.22
2022-10-03T05:15:42.249Z,13.24
2022-10-03T05:17:46.296Z,13.27
2022-10-03T05:18:46.321Z,13.27
2022-10-03T05:20:50.373Z,13.21
2022-10-03T05:21:50.398Z,13.27
2022-10-03T05:23:54.449Z,13.24
2022-10-03T05:24:54.478Z,13.22
2022-10-03T05:26:58.524Z,13.16
2022-10-03T05:27:58.591Z,13.12
2022-10-03T05:30:02.603Z,13.14
2022-10-03T05:31:02.626Z,13.16
2022-10-03T05:33:08.904Z,13.22
2022-10-03T05:34:06.703Z,13.14
2022-10-03T05:35:59.700Z,13.17
2022-10-03T05:36:59.698Z,13.12
2022-10-03T05:39:03.748Z,13.22
2022-10-03T05:40:03.773Z,13.19
2022-10-03T05:42:21.999Z,13.17
2022-10-03T05:43:07.844Z,13.21
2022-10-03T05:45:11.935Z,13.19
2022-10-03T05:46:11.974Z,13.25
2022-10-03T05:48:15.975Z,13.24
2022-10-03T05:49:16.020Z,13.22
2022-10-03T05:51:20.078Z,13.16
2022-10-03T05:52:20.070Z,13.28
2022-10-03T05:54:24.119Z,13.29
2022-10-03T05:55:24.146Z,13.31
2022-10-03T05:57:28.227Z,13.27
2022-10-03T05:58:28.223Z,13.28
2022-10-03T06:00:32.264Z,13.24
2022-10-03T06:01:32.290Z,13.19
2022-10-03T06:03:36.366Z,13.27
2022-10-03T06:04:36.360Z,13.25
2022-10-03T06:06:29.332Z,13.22
2022-10-03T06:07:29.355Z,13.27
2022-10-03T06:09:33.436Z,13.24
2022-10-03T06:10:33.435Z,13.31
2022-10-03T06:12:37.482Z,13.29
2022-10-03T06:13:37.508Z,13.25
2022-10-03T06:15:41.597Z,13.27
2022-10-03T06:16:41.585Z,13.25
2022-10-03T06:18:45.637Z,13.28
2022-10-03T06:19:45.664Z,13.31
2022-10-03T06:21:49.735Z,13.28
2022-10-03T06:22:49.740Z,13.28
2022-10-03T06:24:53.787Z,13.29
2022-10-03T06:25:53.816Z,13.29
2022-10-03T06:27:57.929Z,13.29
2022-10-03T06:28:57.890Z,13.29
2022-10-03T06:31:01.980Z,13.21
2022-10-03T06:32:01.969Z,13.22
2022-10-03T06:34:06.024Z,13.14
2022-10-03T06:35:06.050Z,13.22
2022-10-03T06:37:10.104Z,13.29
2022-10-03T06:38:10.129Z,13.29
2022-10-03T06:40:14.204Z,13.38
2022-10-03T06:41:14.235Z,13.38
2022-10-03T06:43:18.355Z,13.41
2022-10-03T06:44:18.311Z,13.39
2022-10-03T06:46:11.335Z,13.41
2022-10-03T06:47:11.304Z,13.43
2022-10-03T06:49:15.393Z,13.48
2022-10-03T06:50:15.382Z,13.50
2022-10-03T06:52:19.429Z,13.43
2022-10-03T06:53:19.457Z,13.47
2022-10-03T06:55:23.538Z,13.54
2022-10-03T06:56:23.535Z,13.54
2022-10-03T06:58:27.585Z,13.54
2022-10-03T06:59:27.611Z,13.57
2022-10-03T07:01:31.702Z,13.61
2022-10-03T07:02:31.817Z,13.66
2022-10-03T07:04:35.823Z,13.62
2022-10-03T07:05:40.018Z,13.69
2022-10-03T07:07:39.822Z,13.73
2022-10-03T07:08:39.843Z,13.72
2022-10-03T07:10:43.926Z,13.80
2022-10-03T07:11:43.919Z,13.79
2022-10-03T07:13:47.974Z,13.76
2022-10-03T07:14:47.997Z,13.83
2022-10-03T07:16:52.161Z,13.86
2022-10-03T07:17:52.080Z,13.87
2022-10-03T07:19:56.150Z,13.93
2022-10-03T07:20:56.180Z,13.86
2022-10-03T07:23:00.253Z,13.87
2022-10-03T07:24:00.283Z,13.84
2022-10-03T07:25:53.251Z,13.96
2022-10-03T07:26:53.277Z,13.98
2022-10-03T07:28:57.327Z,14.01
2022-10-03T07:29:57.352Z,13.94
2022-10-03T07:32:01.405Z,14.01
2022-10-03T07:33:01.432Z,13.96
2022-10-03T07:35:05.489Z,13.94
2022-10-03T07:36:05.510Z,14.01
2022-10-03T07:38:09.590Z,14.02
2022-10-03T07:39:09.583Z,14.06
2022-10-03T07:41:13.665Z,14.08
2022-10-03T07:42:13.662Z,14.09
2022-10-03T07:44:17.740Z,14.11
2022-10-03T07:45:17.739Z,14.08
2022-10-03T07:47:21.823Z,14.09
2022-10-03T07:48:21.815Z,14.19
2022-10-03T07:50:25.865Z,14.09
2022-10-03T07:51:25.890Z,14.12
2022-10-03T07:53:29.942Z,14.17
2022-10-03T07:54:29.973Z,14.17
2022-10-03T07:56:22.975Z,14.09
2022-10-03T07:57:22.964Z,14.09
2022-10-03T07:59:27.059Z,14.19
2022-10-03T08:00:27.046Z,14.21
2022-10-03T08:02:31.128Z,14.17
2022-10-03T08:03:31.158Z,14.19
2022-10-03T08:05:35.173Z,14.20
2022-10-03T08:06:35.201Z,14.13
2022-10-03T08:08:39.280Z,14.17
2022-10-03T08:09:39.280Z,14.16
2022-10-03T08:11:43.364Z,14.24
2022-10-03T08:12:43.355Z,14.30
2022-10-03T08:14:47.437Z,14.24
2022-10-03T08:15:47.485Z,14.31
2022-10-03T08:17:58.751Z,14.31
2022-10-03T08:18:51.525Z,14.31
2022-10-03T08:20:54.684Z,14.46
2022-10-03T08:21:54.673Z,14.46
2022-10-03T08:23:46.888Z,14.46
2022-10-03T08:24:46.895Z,14.46
2022-10-03T08:26:40.102Z,14.39
2022-10-03T08:27:40.087Z,14.59
2022-10-03T08:29:33.080Z,14.59
2022-10-03T08:30:33.131Z,14.63
2022-10-03T08:32:26.261Z,14.56
2022-10-03T08:33:26.282Z,14.59
2022-10-03T08:35:30.354Z,14.60
2022-10-03T08:36:30.406Z,14.57
2022-10-03T08:37:30.429Z,14.56
2022-10-03T08:38:30.459Z,14.60
2022-10-03T08:39:30.492Z,14.61
2022-10-03T08:40:30.513Z,14.61
2022-10-03T08:41:30.545Z,14.60
2022-10-03T08:42:30.583Z,14.61
2022-10-03T08:43:30.611Z,14.71
2022-10-03T08:44:30.807Z,14.63
2022-10-03T08:45:30.679Z,14.72
2022-10-03T08:46:30.799Z,14.72
2022-10-03T08:47:30.747Z,14.80
2022-10-03T08:48:30.829Z,14.71
2022-10-03T08:49:30.829Z,14.82
2022-10-03T08:50:30.847Z,14.80
2022-10-03T08:51:30.884Z,14.82
2022-10-03T08:52:30.915Z,14.86
2022-10-03T08:53:30.959Z,14.90
2022-10-03T08:54:30.980Z,14.98
2022-10-03T08:55:31.022Z,14.98
2022-10-03T08:56:31.049Z,15.03
2022-10-03T08:57:31.081Z,14.93
2022-10-03T08:58:31.120Z,14.94
2022-10-03T08:59:31.166Z,15.05
2022-10-03T09:00:31.182Z,15.01
2022-10-03T09:01:31.302Z,15.05
2022-10-03T09:02:31.412Z,15.18
2022-10-03T09:03:35.928Z,15.12
2022-10-03T09:04:31.330Z,15.13
2022-10-03T09:05:31.371Z,15.23
2022-10-03T09:06:31.393Z,15.23
2022-10-03T09:07:31.430Z,15.23
2022-10-03T09:08:31.452Z,15.28
2022-10-03T09:09:35.709Z,15.28
2022-10-03T09:10:31.549Z,15.35
2022-10-03T09:11:31.551Z,15.35
2022-10-03T09:12:31.588Z,15.44
2022-10-03T09:13:31.617Z,15.40
2022-10-03T09:14:31.655Z,15.48
2022-10-03T09:15:31.685Z,15.44
2022-10-03T09:16:31.768Z,15.43
2022-10-03T09:17:31.754Z,15.48
2022-10-03T09:18:31.796Z,15.44
2022-10-03T09:19:31.820Z,15.46
2022-10-03T09:20:31.855Z,15.44
2022-10-03T09:21:36.943Z,15.46
2022-10-03T09:22:31.938Z,15.38
2022-10-03T09:23:31.968Z,15.52
2022-10-03T09:24:31.996Z,15.53
2022-10-03T09:25:32.033Z,15.51
2022-10-03T09:26:32.059Z,15.56
2022-10-03T09:27:32.091Z,15.64
2022-10-03T09:28:32.209Z,15.80
2022-10-03T09:29:32.183Z,15.89
2022-10-03T09:30:32.238Z,16.01
2022-10-03T09:31:32.292Z,16.11
2022-10-03T09:32:32.273Z,16.08
2022-10-03T09:33:32.330Z,16.08
2022-10-03T09:34:32.357Z,16.13
2022-10-03T09:35:32.386Z,16.10
2022-10-03T09:36:32.399Z,16.13
2022-10-03T09:37:32.436Z,16.17
2022-10-03T09:38:32.496Z,16.22
2022-10-03T09:39:32.504Z,16.18
2022-10-03T09:40:32.544Z,16.13
2022-10-03T09:41:32.585Z,16.26
2022-10-03T09:42:32.618Z,16.41
2022-10-03T09:43:32.639Z,16.42
2022-10-03T09:44:32.674Z,16.55
2022-10-03T09:45:32.705Z,16.55
2022-10-03T09:46:32.787Z,16.70
2022-10-03T09:47:32.774Z,16.72
2022-10-03T09:48:32.808Z,16.78
2022-10-03T09:49:32.901Z,16.95
2022-10-03T09:50:32.878Z,17.07
2022-10-03T09:51:32.913Z,17.09
2022-10-03T09:52:32.960Z,17.09
2022-10-03T09:53:32.981Z,17.07
2022-10-03T09:54:33.028Z,17.07
2022-10-03T09:55:34.150Z,17.05
2022-10-03T09:56:33.087Z,17.06
2022-10-03T09:57:33.124Z,16.99
2022-10-03T09:58:33.155Z,16.95
2022-10-03T09:59:33.189Z,16.84
2022-10-03T10:00:33.249Z,16.84
2022-10-03T10:01:33.257Z,16.80
2022-10-03T10:02:33.292Z,16.73
2022-10-03T10:03:33.384Z,16.78
2022-10-03T10:04:53.849Z,16.69
2022-10-03T10:05:33.395Z,16.69
2022-10-03T10:06:33.432Z,16.62
2022-10-03T10:07:33.466Z,16.52
2022-10-03T10:08:33.563Z,16.57
2022-10-03T10:09:33.537Z,16.54
2022-10-03T10:10:33.571Z,16.51
2022-10-03T10:11:35.381Z,16.54
2022-10-03T10:12:33.641Z,16.52
2022-10-03T10:13:56.041Z,16.57
2022-10-03T10:14:33.823Z,16.55
2022-10-03T10:15:33.741Z,16.54
2022-10-03T10:16:33.800Z,16.48
2022-10-03T10:17:33.811Z,16.70
2022-10-03T10:18:33.898Z,16.72
2022-10-03T10:19:33.882Z,16.92
2022-10-03T10:20:33.916Z,16.98
2022-10-03T10:21:33.949Z,16.99
2022-10-03T10:22:33.985Z,17.09
2022-10-03T10:23:34.022Z,17.21
2022-10-03T10:24:34.055Z,17.28
2022-10-03T10:25:34.089Z,17.54
2022-10-03T10:26:34.124Z,17.71
2022-10-03T10:27:34.160Z,17.96
2022-10-03T10:28:34.269Z,18.23
2022-10-03T10:29:34.230Z,18.38
2022-10-03T10:30:34.265Z,18.49
2022-10-03T10:31:34.387Z,18.49
2022-10-03T10:32:34.334Z,18.50
2022-10-03T10:33:34.369Z,18.50
2022-10-03T10:34:34.409Z,18.47
2022-10-03T10:35:34.439Z,18.47
2022-10-03T10:36:34.475Z,18.42
2022-10-03T10:37:34.514Z,18.28
2022-10-03T10:38:34.549Z,18.25
2022-10-03T10:39:34.579Z,18.17
2022-10-03T10:40:34.615Z,18.09
2022-10-03T10:41:34.654Z,18.09
2022-10-03T10:42:34.688Z,18.29
2022-10-03T10:43:34.767Z,18.44
2022-10-03T10:44:34.759Z,18.60
2022-10-03T10:45:34.793Z,18.76
2022-10-03T10:46:34.863Z,18.83
2022-10-03T10:47:34.866Z,19.13
2022-10-03T10:48:34.905Z,19.17
2022-10-03T10:49:34.933Z,19.39
2022-10-03T10:50:34.970Z,19.53
2022-10-03T10:51:35.004Z,19.68
2022-10-03T10:52:35.041Z,19.75
2022-10-03T10:53:35.076Z,19.97
2022-10-03T10:54:35.116Z,19.89
2022-10-03T10:55:35.147Z,19.92
2022-10-03T10:56:35.188Z,19.80
2022-10-03T10:57:35.219Z,19.70
2022-10-03T10:58:35.258Z,19.65
2022-10-03T10:59:35.291Z,19.60
2022-10-03T11:00:35.394Z,19.53
2022-10-03T11:01:35.365Z,19.52
2022-10-03T11:02:35.402Z,19.39
2022-10-03T11:03:35.437Z,19.28
2022-10-03T11:04:35.521Z,19.28
2022-10-03T11:05:35.521Z,19.28
2022-10-03T11:06:35.545Z,19.16
2022-10-03T11:07:35.580Z,19.21
2022-10-03T11:08:35.616Z,19.06
2022-10-03T11:09:35.652Z,19.10
2022-10-03T11:10:35.692Z,19.06
2022-10-03T11:11:35.732Z,19.05
2022-10-03T11:12:35.760Z,18.91
2022-10-03T11:13:35.968Z,18.86
2022-10-03T11:14:35.837Z,18.89
2022-10-03T11:15:35.876Z,18.91
2022-10-03T11:16:36.016Z,18.93
2022-10-03T11:17:35.954Z,18.83
2022-10-03T11:18:35.977Z,18.83
2022-10-03T11:19:36.014Z,18.79
2022-10-03T11:20:36.049Z,18.83
2022-10-03T11:21:36.087Z,18.84
2022-10-03T11:22:36.122Z,18.90
2022-10-03T11:23:36.163Z,18.78
2022-10-03T11:24:36.196Z,18.78
2022-10-03T11:25:36.230Z,18.75
2022-10-03T11:26:36.270Z,18.74
2022-10-03T11:27:36.303Z,18.64
2022-10-03T11:28:36.437Z,18.59
2022-10-03T11:29:36.375Z,18.54
2022-10-03T11:30:36.411Z,18.49
2022-10-03T11:31:36.511Z,18.41
2022-10-03T11:32:36.485Z,18.19
2022-10-03T11:33:36.519Z,18.19
2022-10-03T11:34:36.554Z,18.14
2022-10-03T11:35:39.636Z,18.13
2022-10-03T11:36:36.766Z,18.01
2022-10-03T11:37:36.664Z,17.94
2022-10-03T11:38:36.704Z,18.09
2022-10-03T11:39:36.753Z,17.95
2022-10-03T11:40:36.775Z,18.11
2022-10-03T11:41:36.806Z,18.09
2022-10-03T11:42:36.843Z,18.16
2022-10-03T11:43:36.988Z,18.25
2022-10-03T11:44:36.912Z,18.28
2022-10-03T11:45:36.984Z,18.32
2022-10-03T11:46:37.151Z,18.31
2022-10-03T11:47:37.021Z,18.21
2022-10-03T11:48:37.059Z,18.25
2022-10-03T11:49:37.092Z,18.21
2022-10-03T11:50:37.128Z,18.17
2022-10-03T11:51:37.164Z,18.09
2022-10-03T11:52:37.198Z,18.10
2022-10-03T11:53:37.236Z,18.05
2022-10-03T11:54:37.271Z,18.07
2022-10-03T11:55:37.308Z,18.16
2022-10-03T11:56:37.982Z,18.21
2022-10-03T11:57:37.378Z,18.26
2022-10-03T11:58:37.425Z,18.38
2022-10-03T11:59:37.466Z,18.36
2022-10-03T12:00:37.486Z,18.42
2022-10-03T12:01:37.759Z,18.49
2022-10-03T12:02:37.683Z,18.49
2022-10-03T12:03:37.633Z,18.42
2022-10-03T12:04:37.657Z,18.49
2022-10-03T12:05:37.666Z,18.62
2022-10-03T12:06:37.900Z,18.56
2022-10-03T12:07:37.735Z,18.57
2022-10-03T12:08:37.773Z,18.66
2022-10-03T12:09:37.809Z,18.59
2022-10-03T12:10:37.843Z,18.69
2022-10-03T12:11:38.314Z,18.71
2022-10-03T12:12:37.914Z,18.76
2022-10-03T12:13:37.951Z,18.89
2022-10-03T12:14:37.987Z,18.97
2022-10-03T12:15:38.025Z,19.07
2022-10-03T12:16:38.119Z,19.21
2022-10-03T12:17:38.094Z,19.25
2022-10-03T12:18:38.130Z,19.39
2022-10-03T12:19:38.168Z,19.57
2022-10-03T12:20:38.204Z,19.67
2022-10-03T12:21:38.557Z,19.80
2022-10-03T12:22:38.274Z,19.92
2022-10-03T12:23:38.311Z,20.04
2022-10-03T12:24:38.347Z,20.07
2022-10-03T12:25:38.385Z,20.25
2022-10-03T12:26:38.418Z,20.19
2022-10-03T12:27:38.459Z,20.38
2022-10-03T12:28:38.551Z,20.56
2022-10-03T12:29:38.537Z,20.71
2022-10-03T12:30:38.564Z,20.73
2022-10-03T12:31:38.984Z,20.88
2022-10-03T12:32:38.641Z,20.91
2022-10-03T12:33:38.683Z,21.01
2022-10-03T12:34:38.712Z,21.09
2022-10-03T12:35:38.754Z,21.19
2022-10-03T12:36:38.788Z,21.13
2022-10-03T12:37:38.828Z,21.24
2022-10-03T12:38:38.858Z,21.24
2022-10-03T12:39:38.895Z,21.22
2022-10-03T12:40:38.930Z,21.28
2022-10-03T12:41:39.318Z,21.15
2022-10-03T12:42:39.006Z,21.06
2022-10-03T12:43:39.042Z,20.96
2022-10-03T12:44:39.079Z,20.88
2022-10-03T12:45:39.155Z,20.94
2022-10-03T12:46:39.153Z,20.85
2022-10-03T12:47:54.860Z,20.81
2022-10-03T12:48:39.226Z,20.73
2022-10-03T12:49:39.264Z,20.75
2022-10-03T12:50:39.300Z,20.60
2022-10-03T12:51:39.707Z,20.61
2022-10-03T12:52:39.379Z,20.71
2022-10-03T12:53:39.414Z,20.75
2022-10-03T12:54:39.451Z,20.82
2022-10-03T12:55:39.488Z,20.88
2022-10-03T12:56:39.524Z,20.81
2022-10-03T12:57:39.562Z,20.83
2022-10-03T12:58:39.597Z,21.03
2022-10-03T12:59:39.635Z,20.98
2022-10-03T13:00:42.759Z,21.08
2022-10-03T13:01:40.091Z,21.15
2022-10-03T13:02:39.811Z,21.22
2022-10-03T13:03:39.794Z,21.33
2022-10-03T13:04:39.818Z,21.34
2022-10-03T13:05:39.858Z,21.46
2022-10-03T13:07:02.185Z,21.61
2022-10-03T13:07:39.933Z,21.70
2022-10-03T13:08:40.061Z,21.77
2022-10-03T13:09:40.005Z,21.75
2022-10-03T13:10:40.046Z,21.83
2022-10-03T13:11:40.301Z,21.99
2022-10-03T13:12:40.119Z,22.12
2022-10-03T13:13:40.155Z,22.27
2022-10-03T13:14:40.193Z,22.30
2022-10-03T13:15:40.250Z,22.21
2022-10-03T13:16:40.266Z,22.21
2022-10-03T13:17:40.303Z,22.08
2022-10-03T13:18:40.341Z,22.12
2022-10-03T13:19:40.378Z,22.11
2022-10-03T13:20:40.415Z,22.06
2022-10-03T13:21:45.926Z,22.12
2022-10-03T13:22:40.493Z,22.12
2022-10-03T13:23:40.528Z,22.14
2022-10-03T13:24:40.565Z,22.01
2022-10-03T13:25:40.605Z,21.94
2022-10-03T13:26:40.643Z,21.81
2022-10-03T13:27:40.677Z,21.86
2022-10-03T13:28:40.715Z,21.90
2022-10-03T13:29:40.753Z,21.85
2022-10-03T13:30:40.822Z,21.82
2022-10-03T13:31:41.212Z,21.77
2022-10-03T13:32:40.868Z,21.67
2022-10-03T13:33:40.906Z,21.63
2022-10-03T13:34:40.940Z,21.58
2022-10-03T13:35:40.979Z,21.55
2022-10-03T13:36:41.015Z,21.40
2022-10-03T13:37:41.052Z,21.33
2022-10-03T13:38:41.090Z,21.33
2022-10-03T13:39:41.127Z,21.33
2022-10-03T13:40:41.168Z,21.43
2022-10-03T13:41:41.617Z,21.40
2022-10-03T13:42:41.244Z,21.40
2022-10-03T13:43:41.278Z,21.37
2022-10-03T13:44:41.318Z,21.37
2022-10-03T13:45:41.394Z,21.31
2022-10-03T13:46:41.391Z,21.30
2022-10-03T13:47:41.426Z,21.21
2022-10-03T13:48:41.462Z,21.01
2022-10-03T13:49:41.502Z,20.98
2022-10-03T13:50:41.537Z,20.85
2022-10-03T13:51:41.974Z,20.85
2022-10-03T13:52:41.611Z,20.83
2022-10-03T13:53:41.660Z,20.73
2022-10-03T13:54:41.688Z,20.82
2022-10-03T13:55:41.725Z,20.73
2022-10-03T13:56:41.774Z,20.68
2022-10-03T13:57:41.799Z,20.69
2022-10-03T13:58:41.836Z,20.66
2022-10-03T13:59:41.873Z,20.60
2022-10-03T14:00:41.909Z,20.57
2022-10-03T14:01:42.405Z,20.63
2022-10-03T14:02:42.118Z,20.63
2022-10-03T14:03:42.024Z,20.60
2022-10-03T14:04:42.073Z,20.61
2022-10-03T14:05:42.096Z,20.64
2022-10-03T14:06:42.133Z,20.71
2022-10-03T14:07:42.170Z,20.75
2022-10-03T14:08:42.205Z,20.66
2022-10-03T14:09:42.245Z,20.69
2022-10-03T14:10:42.281Z,20.82
2022-10-03T14:11:42.719Z,20.76
2022-10-03T14:12:55.391Z,20.81
2022-10-03T14:13:42.392Z,20.83
2022-10-03T14:14:42.435Z,20.91
2022-10-03T14:15:42.508Z,20.98
2022-10-03T14:16:42.505Z,21.11
2022-10-03T14:17:49.708Z,21.06
2022-10-03T14:19:35.541Z,20.97
2022-10-03T14:20:35.570Z,20.90
2022-10-03T14:22:39.628Z,20.88
2022-10-03T14:23:39.659Z,20.87
2022-10-03T14:25:43.714Z,20.88
2022-10-03T14:26:43.743Z,20.83
2022-10-03T14:28:47.802Z,20.69
2022-10-03T14:29:47.828Z,20.58
2022-10-03T14:31:56.913Z,20.42
2022-10-03T14:32:52.011Z,20.37
2022-10-03T14:34:56.012Z,20.34
2022-10-03T14:35:56.001Z,20.20
2022-10-03T14:38:00.099Z,20.25
2022-10-03T14:39:00.091Z,20.19
2022-10-03T14:41:04.175Z,20.19
2022-10-03T14:42:04.177Z,20.19
2022-10-03T14:44:13.362Z,20.22
2022-10-03T14:45:08.256Z,20.15
2022-10-03T14:47:12.310Z,20.04
2022-10-03T14:48:12.343Z,19.98
2022-10-03T14:50:16.441Z,20.02
2022-10-03T14:51:16.441Z,19.90
2022-10-03T14:53:20.488Z,19.79
2022-10-03T14:54:20.523Z,19.75
2022-10-03T14:56:13.496Z,19.70
2022-10-03T14:57:13.530Z,19.72
2022-10-03T14:59:17.590Z,19.60
2022-10-03T15:00:17.618Z,19.58
2022-10-03T15:02:21.767Z,19.46
2022-10-03T15:03:21.718Z,19.43
2022-10-03T15:05:25.748Z,19.39
2022-10-03T15:06:25.777Z,19.30
2022-10-03T15:08:29.856Z,19.16
2022-10-03T15:09:29.855Z,19.06
2022-10-03T15:11:33.906Z,19.12
2022-10-03T15:12:33.935Z,19.05
2022-10-03T15:14:37.987Z,19.02
2022-10-03T15:15:38.030Z,18.91
2022-10-03T15:17:42.099Z,18.89
2022-10-03T15:18:42.097Z,18.91
2022-10-03T15:20:46.183Z,18.89
2022-10-03T15:21:46.180Z,18.84
2022-10-03T15:23:50.222Z,18.78
2022-10-03T15:24:50.253Z,18.79
2022-10-03T15:26:54.308Z,18.65
2022-10-03T15:27:54.391Z,18.68
2022-10-03T15:29:58.388Z,18.64
2022-10-03T15:30:58.458Z,18.60
2022-10-03T15:33:02.464Z,18.57
2022-10-03T15:34:02.494Z,18.50
2022-10-03T15:35:55.488Z,18.46
2022-10-03T15:36:55.515Z,18.47
2022-10-03T15:38:59.563Z,18.36
2022-10-03T15:39:59.596Z,18.46
2022-10-03T15:42:03.642Z,18.34
2022-10-03T15:43:03.670Z,18.29
2022-10-03T15:45:07.722Z,18.26
2022-10-03T15:46:07.824Z,18.26
2022-10-03T15:48:11.792Z,18.14
2022-10-03T15:49:11.825Z,18.11
2022-10-03T15:51:15.876Z,18.07
2022-10-03T15:52:15.901Z,18.04
2022-10-03T15:54:19.960Z,17.99
2022-10-03T15:55:19.985Z,17.99
2022-10-03T15:57:24.063Z,17.96
2022-10-03T15:58:24.059Z,17.84
2022-10-03T16:00:28.108Z,17.84
2022-10-03T16:01:28.177Z,17.84
2022-10-03T16:03:32.221Z,17.76
2022-10-03T16:04:32.216Z,17.70
2022-10-03T16:06:25.187Z,17.60
2022-10-03T16:07:25.208Z,17.66
2022-10-03T16:09:29.291Z,17.62
2022-10-03T16:10:29.291Z,17.60
2022-10-03T16:12:33.341Z,17.58
2022-10-03T16:13:33.372Z,17.57
2022-10-03T16:15:37.457Z,17.57
2022-10-03T16:16:37.463Z,17.55
2022-10-03T16:18:41.491Z,17.53
2022-10-03T16:19:41.522Z,17.45
2022-10-03T16:21:45.606Z,17.46
2022-10-03T16:22:45.607Z,17.40
2022-10-03T16:24:49.679Z,17.45
2022-10-03T16:25:49.681Z,17.40
2022-10-03T16:27:53.755Z,17.39
2022-10-03T16:28:53.765Z,17.32
2022-10-03T16:30:57.924Z,17.30
2022-10-03T16:31:57.921Z,17.32
2022-10-03T16:34:01.909Z,17.20
2022-10-03T16:35:01.934Z,17.27